Oxford, Massachusetts
Current Conditions -  °F | °C
As of 1:20 AM on Thursday 23 Oct 2014 (Local Time) from KORH Reporting Station
Thunderstorm Thunderstorm  
Wind Chill: 38°   Ceiling: 500
Heat Index: 45°   Visibility: 3mi
Dew Point: 44°   Wind: 17mph
Humidity: 97%   Direction: 70°ENE
Pressure: 29.85"   Gusts: 29mph
Location:  42.12°N, 71.86°W
Report Text: KORH 230520Z AUTO 07015G25KT 3SM VCTS +RA BR BKN005 OVC010 07/07 A2985 RMK AO2 PK WND 02029/0501 SFC VIS 3 LTG DSNT E PRESRR P0010 T00720067
Loading
Personal Weather Stations






























Interactive Weather Map
Tropical Storm Tracking
New forecast layout! Learn more

10-Day Weather Forecast

Advertisements
Track Severe Weather on mobile